Terminal Aerodrome Forecast
Issued by NWS

Home | Current Version | Previous Version | Text Only | Print | Product List | Glossary Off
Versions: 1 2 3 4 5 6 7 8 9 10 11 12 13 14 15 16 17 18 19 20 21 22

000
FTUS43 KMPX 201900 AAA
TAFRWF
TAF AMD
KRWF 201931Z 2020/2118 18017G23KT P6SM BKN035
     FM210200 18009KT P6SM FEW200
      TEMPO 2109/2113 4SM BR
     FM211400 15011KT 6SM HZ SCT080 SCT150=

USA.gov is the U.S. government's official web portal to all federal, state and local government web resources and services.